createdAt,value
2023-04-23T00:00:51.466Z,15.90
2023-04-23T00:04:57.939Z,15.80
2023-04-23T00:09:01.972Z,15.70
2023-04-23T00:13:05.428Z,15.60
2023-04-23T00:17:09.715Z,15.40
2023-04-23T00:21:12.969Z,15.40
2023-04-23T00:25:16.101Z,15.30
2023-04-23T00:29:19.061Z,15.20
2023-04-23T00:33:24.053Z,15.20
2023-04-23T00:37:27.078Z,15.10
2023-04-23T00:41:30.180Z,15.00
2023-04-23T00:45:33.266Z,14.90
2023-04-23T00:49:39.366Z,14.90
2023-04-23T00:53:42.357Z,14.80
2023-04-23T00:57:45.515Z,14.80
2023-04-23T01:01:49.103Z,14.80
2023-04-23T01:05:53.837Z,14.70
2023-04-23T01:09:57.151Z,14.70
2023-04-23T01:14:01.321Z,14.60
2023-04-23T01:18:04.708Z,14.60
2023-04-23T01:22:12.093Z,14.60
2023-04-23T01:26:15.370Z,14.50
2023-04-23T01:30:18.471Z,14.50
2023-04-23T01:34:22.678Z,14.50
2023-04-23T01:38:29.687Z,14.40
2023-04-23T01:42:32.641Z,14.40
2023-04-23T01:46:36.155Z,14.30
2023-04-23T01:50:39.796Z,14.20
2023-04-23T01:54:44.207Z,14.20
2023-04-23T01:58:47.241Z,14.20
2023-04-23T02:02:51.585Z,14.10
2023-04-23T02:06:54.658Z,14.00
2023-04-23T02:10:59.037Z,14.00
2023-04-23T02:15:02.135Z,13.90
2023-04-23T02:19:05.509Z,13.80
2023-04-23T02:23:08.499Z,13.80
2023-04-23T02:27:12.642Z,13.70
2023-04-23T02:31:15.917Z,13.70
2023-04-23T02:35:18.966Z,13.60
2023-04-23T02:39:21.826Z,13.60
2023-04-23T02:43:26.272Z,13.50
2023-04-23T02:47:30.208Z,13.50
2023-04-23T02:51:33.530Z,13.40
2023-04-23T02:55:36.971Z,13.40
2023-04-23T02:59:41.358Z,13.30
2023-04-23T03:03:44.861Z,13.30
2023-04-23T03:07:47.710Z,13.20
2023-04-23T03:11:51.057Z,13.10
2023-04-23T03:15:55.223Z,13.10
2023-04-23T03:19:58.225Z,13.00
2023-04-23T03:24:01.264Z,13.00
2023-04-23T03:28:04.290Z,12.90
2023-04-23T03:32:08.617Z,12.80
2023-04-23T03:36:11.680Z,12.70
2023-04-23T03:40:14.777Z,12.60
2023-04-23T03:44:17.764Z,12.60
2023-04-23T03:48:22.099Z,12.60
2023-04-23T03:56:28.692Z,12.50
2023-04-23T04:00:31.701Z,12.40
2023-04-23T04:04:36.738Z,12.40
2023-04-23T04:08:39.907Z,12.30
2023-04-23T04:12:44.979Z,12.30
2023-04-23T04:16:48.021Z,12.30
2023-04-23T04:20:53.388Z,12.20
2023-04-23T04:24:57.467Z,12.10
2023-04-23T04:29:01.654Z,12.10
2023-04-23T04:33:04.825Z,12.00
2023-04-23T04:37:10.963Z,12.00
2023-04-23T04:41:14.323Z,11.90
2023-04-23T04:45:17.309Z,11.90
2023-04-23T04:49:21.917Z,11.90
2023-04-23T04:53:26.222Z,11.80
2023-04-23T04:57:29.216Z,11.80
2023-04-23T05:01:32.508Z,11.80
2023-04-23T05:05:35.578Z,11.80
2023-04-23T05:09:39.888Z,11.80
2023-04-23T05:13:42.850Z,11.70
2023-04-23T05:17:46.111Z,11.70
2023-04-23T05:21:49.164Z,11.70
2023-04-23T05:25:56.024Z,11.70
2023-04-23T05:29:59.521Z,11.80
2023-04-23T05:34:02.358Z,11.70
2023-04-23T05:38:06.465Z,11.80
2023-04-23T05:42:10.659Z,11.80
2023-04-23T05:46:13.529Z,11.80
2023-04-23T05:50:16.476Z,11.80
2023-04-23T05:54:19.417Z,11.80
2023-04-23T05:58:23.579Z,11.90
2023-04-23T06:02:26.669Z,11.90
2023-04-23T06:06:29.627Z,12.00
2023-04-23T06:10:32.546Z,12.00
2023-04-23T06:14:37.397Z,12.00
2023-04-23T06:18:40.580Z,12.10
2023-04-23T06:22:45.344Z,12.20
2023-04-23T06:26:48.226Z,12.20
2023-04-23T06:30:52.589Z,12.30
2023-04-23T06:35:01.655Z,12.40
2023-04-23T06:39:05.316Z,12.40
2023-04-23T06:43:08.229Z,12.50
2023-04-23T06:47:12.479Z,12.60
2023-04-23T06:51:16.018Z,12.70
2023-04-23T06:55:18.934Z,12.80
2023-04-23T06:59:21.723Z,12.90
2023-04-23T07:03:26.242Z,13.00
2023-04-23T07:07:29.180Z,13.00
2023-04-23T07:11:34.830Z,13.10
2023-04-23T07:15:38.104Z,13.20
2023-04-23T07:19:42.446Z,13.20
2023-04-23T07:23:45.375Z,13.30
2023-04-23T07:27:48.188Z,13.40
2023-04-23T07:31:51.195Z,13.50
2023-04-23T07:35:55.457Z,13.60
2023-04-23T07:39:58.393Z,13.80
2023-04-23T07:44:01.556Z,14.00
2023-04-23T07:48:04.386Z,14.10
2023-04-23T07:52:08.970Z,14.20
2023-04-23T07:56:12.020Z,14.30
2023-04-23T08:00:16.134Z,14.40
2023-04-23T08:04:19.183Z,14.50
2023-04-23T08:08:24.351Z,14.60
2023-04-23T08:12:28.174Z,14.80
2023-04-23T08:16:31.812Z,14.90
2023-04-23T08:20:35.141Z,15.00
2023-04-23T08:24:39.585Z,15.10
2023-04-23T08:28:42.575Z,15.20
2023-04-23T08:32:51.151Z,15.40
2023-04-23T08:36:54.381Z,15.60
2023-04-23T08:41:00.163Z,15.80
2023-04-23T08:45:04.513Z,16.00
2023-04-23T08:49:09.443Z,16.20
2023-04-23T08:53:16.677Z,16.50
2023-04-23T08:57:21.316Z,16.70
2023-04-23T09:01:24.347Z,17.00
2023-04-23T09:05:28.573Z,17.20
2023-04-23T09:09:32.249Z,17.40
2023-04-23T09:13:37.149Z,17.70
2023-04-23T09:17:43.995Z,17.90
2023-04-23T09:21:47.691Z,18.10
2023-04-23T09:25:50.739Z,18.20
2023-04-23T09:29:57.408Z,18.40
2023-04-23T09:34:00.705Z,18.50
2023-04-23T09:38:07.768Z,18.60
2023-04-23T09:42:12.805Z,18.70
2023-04-23T09:46:17.173Z,18.90
2023-04-23T09:50:20.566Z,19.30
2023-04-23T09:54:25.862Z,19.50
2023-04-23T09:58:29.181Z,19.80
2023-04-23T10:02:33.980Z,19.80
2023-04-23T10:06:44.403Z,20.00
2023-04-23T10:11:09.540Z,20.20
2023-04-23T10:15:16.997Z,20.40
2023-04-23T10:19:23.832Z,20.60
2023-04-23T10:23:27.312Z,20.90
2023-04-23T10:27:48.312Z,21.20
2023-04-23T10:31:55.829Z,21.40
2023-04-23T10:36:01.293Z,21.60
2023-04-23T10:40:11.459Z,21.80
2023-04-23T10:44:17.214Z,21.90
2023-04-23T10:48:21.698Z,22.00
2023-04-23T10:52:26.302Z,22.00
2023-04-23T10:56:29.382Z,22.00
2023-04-23T11:00:46.032Z,21.80
2023-04-23T11:04:56.062Z,21.70
2023-04-23T11:09:00.504Z,21.60
2023-04-23T11:13:24.426Z,21.50
2023-04-23T11:17:42.142Z,21.50
2023-04-23T11:21:58.715Z,21.60
2023-04-23T11:26:04.214Z,21.60
2023-04-23T11:30:11.663Z,21.60
2023-04-23T11:34:14.870Z,21.60
2023-04-23T11:38:17.883Z,21.60
2023-04-23T11:42:22.058Z,21.60
2023-04-23T11:46:25.142Z,21.50
2023-04-23T11:50:30.061Z,21.20
2023-04-23T11:54:33.542Z,21.10
2023-04-23T11:58:39.371Z,21.00
2023-04-23T12:02:55.489Z,21.00
2023-04-23T12:06:59.509Z,21.00
2023-04-23T12:11:06.201Z,21.20
2023-04-23T12:15:10.898Z,21.10
2023-04-23T12:19:15.651Z,21.00
2023-04-23T12:23:18.682Z,20.80
2023-04-23T12:27:22.954Z,20.50
2023-04-23T12:31:29.005Z,20.20
2023-04-23T12:35:40.311Z,19.70
2023-04-23T12:39:43.714Z,19.40
2023-04-23T12:43:48.798Z,19.10
2023-04-23T12:47:53.266Z,18.80
2023-04-23T12:52:01.030Z,18.50
2023-04-23T12:56:04.211Z,18.40
2023-04-23T13:00:09.016Z,18.40
2023-04-23T13:04:13.438Z,18.40
2023-04-23T13:08:16.563Z,18.60
2023-04-23T13:12:19.590Z,18.80
2023-04-23T13:16:22.666Z,19.00
2023-04-23T13:20:27.223Z,19.20
2023-04-23T13:24:30.185Z,19.40
2023-04-23T13:28:33.223Z,19.60
2023-04-23T13:32:36.276Z,19.70
2023-04-23T13:36:42.264Z,19.90
2023-04-23T13:40:45.258Z,20.00
2023-04-23T13:44:48.226Z,20.10
2023-04-23T13:48:51.233Z,20.00
2023-04-23T13:52:55.761Z,19.90
2023-04-23T13:56:58.861Z,19.90
2023-04-23T14:01:02.129Z,19.90
2023-04-23T14:05:06.606Z,20.00
2023-04-23T14:09:11.626Z,20.00
2023-04-23T14:13:14.652Z,20.10
2023-04-23T14:17:17.779Z,20.20
2023-04-23T14:21:20.802Z,20.30
2023-04-23T14:25:31.588Z,20.40
2023-04-23T14:29:37.945Z,20.40
2023-04-23T14:33:41.189Z,20.40
2023-04-23T14:37:45.589Z,20.40
2023-04-23T14:41:56.616Z,20.50
2023-04-23T14:45:59.655Z,20.50
2023-04-23T14:50:02.747Z,20.50
2023-04-23T14:54:06.699Z,20.60
2023-04-23T14:58:11.171Z,20.70
2023-04-23T15:02:14.350Z,20.80
2023-04-23T15:06:17.525Z,20.90
2023-04-23T15:10:23.262Z,21.00
2023-04-23T15:14:33.252Z,21.10
2023-04-23T15:18:38.292Z,21.30
2023-04-23T15:22:42.052Z,21.40
2023-04-23T15:26:47.044Z,21.50
2023-04-23T15:30:59.410Z,21.70
2023-04-23T15:35:02.421Z,21.80
2023-04-23T15:39:10.920Z,21.90
2023-04-23T15:43:14.444Z,21.80
2023-04-23T15:47:21.568Z,21.80
2023-04-23T15:51:26.356Z,21.60
2023-04-23T15:55:29.641Z,21.40
2023-04-23T15:59:32.675Z,21.30
2023-04-23T16:03:37.285Z,21.10
2023-04-23T16:07:42.373Z,20.90
2023-04-23T16:11:45.515Z,20.70
2023-04-23T16:15:48.647Z,20.60
2023-04-23T16:19:52.959Z,20.40
2023-04-23T16:23:55.992Z,19.90
2023-04-23T16:27:59.078Z,19.60
2023-04-23T16:32:02.199Z,19.30
2023-04-23T16:36:07.206Z,19.00
2023-04-23T16:40:11.116Z,18.80
2023-04-23T16:44:23.493Z,18.50
2023-04-23T16:48:27.569Z,18.30
2023-04-23T16:52:31.935Z,18.20
2023-04-23T16:56:34.977Z,18.10
2023-04-23T17:00:38.483Z,18.00
2023-04-23T17:04:41.772Z,17.90
2023-04-23T17:08:49.328Z,17.80
2023-04-23T17:12:54.366Z,17.70
2023-04-23T17:16:57.488Z,17.60
2023-04-23T17:21:00.497Z,17.60
2023-04-23T17:25:06.277Z,17.50
2023-04-23T17:29:16.639Z,17.50
2023-04-23T17:33:19.697Z,17.40
2023-04-23T17:37:22.758Z,17.40
2023-04-23T17:41:30.379Z,17.30
2023-04-23T17:45:33.489Z,17.20
2023-04-23T17:49:36.802Z,17.20
2023-04-23T17:53:39.830Z,17.10
2023-04-23T17:57:44.182Z,17.00
2023-04-23T18:01:47.203Z,16.90
2023-04-23T18:05:54.092Z,16.90
2023-04-23T18:09:57.116Z,16.80
2023-04-23T18:14:04.673Z,16.70
2023-04-23T18:18:07.760Z,16.60
2023-04-23T18:22:10.860Z,16.60
2023-04-23T18:26:13.848Z,16.50
2023-04-23T18:30:23.149Z,16.50
2023-04-23T18:34:26.334Z,16.40
2023-04-23T18:38:32.861Z,16.40
2023-04-23T18:42:37.127Z,16.30
2023-04-23T18:46:41.555Z,16.20
2023-04-23T18:50:49.981Z,16.20
2023-04-23T18:54:53.419Z,16.10
2023-04-23T18:58:56.456Z,16.00
2023-04-23T19:03:06.459Z,16.00
2023-04-23T19:07:12.380Z,15.90
2023-04-23T19:11:15.489Z,15.90
2023-04-23T19:15:19.101Z,15.80
2023-04-23T19:19:24.463Z,15.80
2023-04-23T19:23:27.553Z,15.70
2023-04-23T19:27:30.578Z,15.70
2023-04-23T19:31:33.832Z,15.70
2023-04-23T19:35:40.103Z,15.60
2023-04-23T19:39:43.558Z,15.60
2023-04-23T19:43:47.610Z,15.60
2023-04-23T19:47:52.016Z,15.50
2023-04-23T19:51:59.246Z,15.50
2023-04-23T19:56:02.810Z,15.40
2023-04-23T20:00:10.627Z,15.40
2023-04-23T20:04:13.721Z,15.40
2023-04-23T20:08:26.186Z,15.30
2023-04-23T20:12:32.765Z,15.30
2023-04-23T20:16:36.507Z,15.20
2023-04-23T20:20:40.028Z,15.20
2023-04-23T20:24:46.446Z,15.10
2023-04-23T20:28:50.223Z,15.00
2023-04-23T20:32:53.412Z,14.90
2023-04-23T20:36:58.944Z,14.80
2023-04-23T20:41:04.957Z,14.70
2023-04-23T20:45:09.510Z,14.60
2023-04-23T20:49:13.125Z,14.40
2023-04-23T20:53:16.332Z,14.40
2023-04-23T20:57:21.061Z,14.30
2023-04-23T21:01:24.315Z,14.20
2023-04-23T21:05:27.550Z,14.20
2023-04-23T21:09:30.837Z,14.10
2023-04-23T21:13:35.158Z,14.10
2023-04-23T21:17:38.152Z,14.00
2023-04-23T21:21:41.463Z,14.00
2023-04-23T21:25:44.587Z,13.90
2023-04-23T21:29:49.652Z,13.90
2023-04-23T21:33:54.345Z,13.80
2023-04-23T21:37:59.395Z,13.80
2023-04-23T21:42:02.759Z,13.70
2023-04-23T21:46:07.257Z,13.70
2023-04-23T21:50:11.519Z,13.60
2023-04-23T21:54:14.491Z,13.60
2023-04-23T21:58:18.144Z,13.50
2023-04-23T22:02:22.894Z,13.50
2023-04-23T22:06:26.060Z,13.50
2023-04-23T22:10:29.120Z,13.40
2023-04-23T22:14:32.239Z,13.40
2023-04-23T22:18:36.566Z,13.40
2023-04-23T22:22:41.075Z,13.30
2023-04-23T22:26:43.932Z,13.30
2023-04-23T22:30:47.226Z,13.30
2023-04-23T22:34:52.854Z,13.20
2023-04-23T22:38:56.203Z,13.20
2023-04-23T22:42:59.426Z,13.20
2023-04-23T22:47:02.451Z,13.20
2023-04-23T22:51:06.987Z,13.20
2023-04-23T22:55:10.675Z,13.20
2023-04-23T22:59:13.837Z,13.20
2023-04-23T23:03:17.118Z,13.20
2023-04-23T23:07:21.685Z,13.20
2023-04-23T23:11:24.758Z,13.20
2023-04-23T23:15:27.745Z,13.20
2023-04-23T23:19:31.038Z,13.20
2023-04-23T23:23:35.557Z,13.20
2023-04-23T23:27:38.601Z,13.10
2023-04-23T23:31:41.900Z,13.10
2023-04-23T23:35:45.021Z,13.10
2023-04-23T23:39:49.350Z,13.00
2023-04-23T23:43:52.347Z,13.00
2023-04-23T23:47:55.833Z,13.00
2023-04-23T23:51:59.225Z,12.90
2023-04-23T23:56:03.993Z,13.00
